Time;durP1;ratioP1;P1;durP2;ratioP2;P2;SDS_P1;SDS_P2;PMS_P1;PMS_P2;Temp;Humidity;BMP_temperature;BMP_pressure;BME280_temperature;BME280_humidity;BME280_pressure;Samples;Min_cycle;Max_cycle;Signal;HPM_P1;HPM_P2
2023/07/23 00:02:25;;;;;;;3.90;2.65;;;;;;;;;;5099439;28;20207;-62
2023/07/23 00:04:52;;;;;;;2.88;2.67;;;;;;;;;;5099930;28;20200;-62
2023/07/23 00:07:20;;;;;;;2.67;2.47;;;;;;;;;;5099261;28;20286;-62
2023/07/23 00:09:48;;;;;;;3.17;2.55;;;;;;;;;;5099228;28;20223;-63
2023/07/23 00:12:16;;;;;;;2.35;2.15;;;;;;;;;;5112914;28;20203;-63
2023/07/23 00:14:44;;;;;;;2.80;2.60;;;;;;;;;;5119288;28;20203;-63
2023/07/23 00:17:12;;;;;;;2.80;2.60;;;;;;;;;;5119892;28;20202;-63
2023/07/23 00:19:39;;;;;;;2.92;2.72;;;;;;;;;;5119813;28;20617;-62
2023/07/23 00:22:07;;;;;;;2.58;2.38;;;;;;;;;;5119196;28;20203;-63
2023/07/23 00:24:35;;;;;;;2.72;2.53;;;;;;;;;;5119657;28;20560;-63
2023/07/23 00:27:03;;;;;;;2.80;2.60;;;;;;;;;;5118555;28;20210;-62
2023/07/23 00:29:32;;;;;;;2.85;2.65;;;;;;;;;;5119489;28;20535;-63
2023/07/23 00:32:00;;;;;;;2.65;2.40;;;;;;;;;;5119390;28;20203;-62
2023/07/23 00:34:27;;;;;;;2.85;2.65;;;;;;;;;;5118990;28;20235;-63
2023/07/23 00:36:55;;;;;;;2.72;2.53;;;;;;;;;;5119400;28;20214;-63
2023/07/23 00:39:23;;;;;;;2.50;2.30;;;;;;;;;;5119578;28;20195;-62
2023/07/23 00:41:51;;;;;;;2.63;2.45;;;;;;;;;;5118913;28;20564;-63
2023/07/23 00:44:19;;;;;;;2.50;2.30;;;;;;;;;;5119357;28;20311;-63
2023/07/23 00:46:48;;;;;;;3.03;2.70;;;;;;;;;;5119475;28;20483;-62
2023/07/23 00:49:16;;;;;;;2.70;2.50;;;;;;;;;;5119529;28;20203;-62
2023/07/23 00:51:45;;;;;;;2.90;2.40;;;;;;;;;;5119664;28;20230;-62
2023/07/23 00:54:13;;;;;;;2.67;2.40;;;;;;;;;;5119580;28;20297;-63
2023/07/23 00:56:42;;;;;;;2.85;2.65;;;;;;;;;;5119219;28;20203;-63
2023/07/23 00:59:10;;;;;;;2.70;2.50;;;;;;;;;;5119601;28;20241;-63
2023/07/23 01:01:37;;;;;;;2.70;2.50;;;;;;;;;;5118914;28;20195;-62
2023/07/23 01:04:07;;;;;;;3.10;2.78;;;;;;;;;;5118856;28;20228;-62
2023/07/23 01:06:35;;;;;;;2.90;2.70;;;;;;;;;;5119286;28;20209;-62
2023/07/23 01:09:04;;;;;;;2.97;2.70;;;;;;;;;;5119282;28;20203;-63
2023/07/23 01:11:32;;;;;;;3.03;2.78;;;;;;;;;;5118916;28;20235;-62
2023/07/23 01:14:01;;;;;;;2.60;2.40;;;;;;;;;;5119527;28;20209;-63
2023/07/23 01:16:29;;;;;;;2.70;2.50;;;;;;;;;;5118650;28;20305;-63
2023/07/23 01:18:57;;;;;;;3.00;2.80;;;;;;;;;;5118515;28;20230;-63
2023/07/23 01:21:27;;;;;;;2.72;2.53;;;;;;;;;;5118543;28;20302;-63
2023/07/23 01:23:56;;;;;;;3.95;2.70;;;;;;;;;;5118346;28;20605;-63
2023/07/23 01:26:24;;;;;;;3.10;2.90;;;;;;;;;;5118777;28;20203;-63
2023/07/23 01:28:51;;;;;;;3.30;2.58;;;;;;;;;;5118942;28;20214;-63
2023/07/23 01:31:19;;;;;;;3.00;2.80;;;;;;;;;;5118602;28;20227;-62
2023/07/23 01:33:47;;;;;;;2.80;2.55;;;;;;;;;;5118410;28;20211;-62
2023/07/23 01:36:16;;;;;;;3.00;2.80;;;;;;;;;;5118478;28;20234;-62
2023/07/23 01:38:43;;;;;;;3.17;2.88;;;;;;;;;;5118493;28;20238;-62
2023/07/23 01:41:13;;;;;;;2.97;2.67;;;;;;;;;;5118952;28;20199;-62
2023/07/23 01:43:41;;;;;;;3.38;2.75;;;;;;;;;;5118833;28;20210;-62
2023/07/23 01:46:08;;;;;;;3.20;2.70;;;;;;;;;;5118405;28;20213;-62
2023/07/23 01:48:36;;;;;;;3.00;2.70;;;;;;;;;;5118454;28;20229;-63
2023/07/23 01:51:04;;;;;;;3.00;2.80;;;;;;;;;;5118491;28;20560;-63
2023/07/23 01:53:31;;;;;;;2.80;2.60;;;;;;;;;;5118144;28;20605;-63
2023/07/23 01:55:59;;;;;;;2.63;2.42;;;;;;;;;;5118172;28;20214;-63
2023/07/23 01:58:29;;;;;;;3.88;2.80;;;;;;;;;;5117769;28;20238;-63
2023/07/23 02:01:00;;;;;;;2.92;2.72;;;;;;;;;;5117851;28;20199;-63
2023/07/23 02:03:28;;;;;;;2.65;2.45;;;;;;;;;;5118216;28;20211;-63
2023/07/23 02:06:00;;;;;;;3.00;2.70;;;;;;;;;;5118381;28;20328;-62
2023/07/23 02:08:28;;;;;;;2.70;2.50;;;;;;;;;;5118011;28;20301;-62
2023/07/23 02:10:59;;;;;;;2.70;2.50;;;;;;;;;;5117728;28;20288;-63
2023/07/23 02:13:28;;;;;;;3.38;2.78;;;;;;;;;;5118073;28;20294;-63
2023/07/23 02:15:56;;;;;;;3.65;2.90;;;;;;;;;;5118127;28;20214;-63
2023/07/23 02:18:24;;;;;;;3.00;2.80;;;;;;;;;;5117940;28;20629;-62
2023/07/23 02:20:51;;;;;;;2.97;2.75;;;;;;;;;;5118117;28;20198;-62
2023/07/23 02:23:19;;;;;;;2.90;2.70;;;;;;;;;;5118087;28;20210;-62
2023/07/23 02:25:49;;;;;;;3.00;2.80;;;;;;;;;;5117796;28;20203;-63
2023/07/23 02:28:17;;;;;;;2.88;2.58;;;;;;;;;;5117005;28;20889;-62
2023/07/23 02:30:46;;;;;;;2.80;2.60;;;;;;;;;;5121128;28;20287;-62
2023/07/23 02:33:13;;;;;;;2.80;2.60;;;;;;;;;;5121793;28;20206;-62
2023/07/23 02:35:41;;;;;;;2.85;2.60;;;;;;;;;;5121628;28;20231;-63
2023/07/23 02:38:08;;;;;;;3.10;2.90;;;;;;;;;;5121851;28;20203;-61
2023/07/23 02:40:36;;;;;;;3.03;2.83;;;;;;;;;;5122189;28;20206;-62
2023/07/23 02:43:04;;;;;;;2.80;2.60;;;;;;;;;;5121777;28;20210;-62
2023/07/23 02:45:31;;;;;;;2.90;2.70;;;;;;;;;;5121846;28;20263;-64
2023/07/23 02:48:00;;;;;;;2.80;2.60;;;;;;;;;;5121844;28;20217;-63
2023/07/23 02:50:28;;;;;;;3.00;2.80;;;;;;;;;;5121804;28;20625;-62
2023/07/23 02:52:56;;;;;;;2.75;2.55;;;;;;;;;;5122161;28;20218;-62
2023/07/23 02:55:25;;;;;;;3.35;2.63;;;;;;;;;;5121345;28;20203;-63
2023/07/23 02:57:52;;;;;;;2.97;2.50;;;;;;;;;;5121897;28;20203;-63
2023/07/23 03:00:20;;;;;;;2.95;2.75;;;;;;;;;;5122081;28;20491;-62
2023/07/23 03:02:48;;;;;;;2.80;2.60;;;;;;;;;;5121662;28;20211;-63
2023/07/23 03:05:17;;;;;;;2.92;2.72;;;;;;;;;;5121775;28;20267;-62
2023/07/23 03:07:44;;;;;;;2.80;2.60;;;;;;;;;;5122006;28;20280;-62
2023/07/23 03:10:12;;;;;;;3.33;3.05;;;;;;;;;;5121595;28;20492;-62
2023/07/23 03:12:40;;;;;;;2.67;2.47;;;;;;;;;;5121483;28;20590;-62
2023/07/23 03:15:08;;;;;;;2.83;2.63;;;;;;;;;;5121553;28;20578;-62
2023/07/23 03:17:35;;;;;;;2.67;2.47;;;;;;;;;;5121070;28;20267;-62
2023/07/23 03:20:04;;;;;;;2.95;2.75;;;;;;;;;;5121332;28;20203;-62
2023/07/23 03:22:33;;;;;;;3.05;2.75;;;;;;;;;;5121022;28;20511;-63
2023/07/23 03:25:01;;;;;;;3.08;2.88;;;;;;;;;;5121550;28;20207;-62
2023/07/23 03:27:29;;;;;;;2.78;2.58;;;;;;;;;;5121113;28;20235;-63
2023/07/23 03:29:56;;;;;;;3.40;3.00;;;;;;;;;;5121087;28;20203;-63
2023/07/23 03:32:24;;;;;;;3.13;2.92;;;;;;;;;;5120872;28;20226;-63
2023/07/23 03:34:52;;;;;;;2.70;2.50;;;;;;;;;;5120387;28;20227;-63
2023/07/23 03:37:19;;;;;;;3.10;2.90;;;;;;;;;;5121040;28;20257;-63
2023/07/23 03:39:48;;;;;;;3.30;2.88;;;;;;;;;;5120090;28;20203;-63
2023/07/23 03:42:17;;;;;;;2.97;2.78;;;;;;;;;;5120535;28;20199;-63
2023/07/23 03:44:44;;;;;;;2.97;2.78;;;;;;;;;;5121041;28;20214;-62
2023/07/23 03:47:14;;;;;;;3.00;2.80;;;;;;;;;;5120996;28;20265;-62
2023/07/23 03:49:41;;;;;;;2.80;2.60;;;;;;;;;;5120969;28;20203;-63
2023/07/23 03:52:10;;;;;;;3.30;3.00;;;;;;;;;;5120673;28;20621;-62
2023/07/23 03:54:37;;;;;;;2.70;2.50;;;;;;;;;;5120346;28;20203;-62
2023/07/23 03:57:07;;;;;;;2.65;2.45;;;;;;;;;;5120550;28;20203;-62
2023/07/23 03:59:37;;;;;;;3.00;2.80;;;;;;;;;;5120703;28;20298;-63
2023/07/23 04:02:04;;;;;;;2.80;2.60;;;;;;;;;;5120771;28;20211;-63
2023/07/23 04:04:32;;;;;;;2.80;2.60;;;;;;;;;;5120729;28;20217;-63
2023/07/23 04:06:59;;;;;;;3.20;3.00;;;;;;;;;;5121118;28;20203;-63
2023/07/23 04:09:27;;;;;;;2.83;2.63;;;;;;;;;;5120648;28;20621;-63
2023/07/23 04:11:54;;;;;;;3.40;3.10;;;;;;;;;;5121063;28;20233;-63
2023/07/23 04:14:23;;;;;;;2.70;2.50;;;;;;;;;;5121035;28;20247;-63
2023/07/23 04:16:50;;;;;;;3.22;2.95;;;;;;;;;;5120491;28;20203;-63
2023/07/23 04:19:18;;;;;;;2.90;2.70;;;;;;;;;;5120578;28;20280;-63
2023/07/23 04:21:46;;;;;;;3.03;2.83;;;;;;;;;;5120238;28;20207;-63
2023/07/23 04:24:14;;;;;;;3.70;3.40;;;;;;;;;;5120233;28;20205;-63
2023/07/23 04:26:41;;;;;;;2.78;2.58;;;;;;;;;;5120199;28;20265;-63
2023/07/23 04:29:09;;;;;;;2.75;2.55;;;;;;;;;;5120189;28;20210;-64
2023/07/23 04:31:38;;;;;;;3.25;2.83;;;;;;;;;;5120632;28;20564;-63
2023/07/23 04:34:06;;;;;;;3.10;2.80;;;;;;;;;;5120097;28;20226;-63
2023/07/23 04:36:33;;;;;;;2.80;2.60;;;;;;;;;;5120614;28;20217;-63
2023/07/23 04:39:03;;;;;;;2.95;2.75;;;;;;;;;;5120779;28;20812;-63
2023/07/23 04:41:30;;;;;;;2.90;2.60;;;;;;;;;;5120134;28;20199;-63
2023/07/23 04:43:58;;;;;;;2.88;2.67;;;;;;;;;;5120201;28;20211;-63
2023/07/23 04:46:26;;;;;;;2.92;2.72;;;;;;;;;;5120393;28;20203;-63
2023/07/23 04:48:55;;;;;;;2.90;2.70;;;;;;;;;;5120558;28;20246;-63
2023/07/23 04:51:22;;;;;;;3.03;2.83;;;;;;;;;;5119981;28;20603;-63
2023/07/23 04:53:49;;;;;;;2.92;2.72;;;;;;;;;;5119856;28;20252;-63
2023/07/23 04:56:17;;;;;;;2.90;2.70;;;;;;;;;;5120185;28;20548;-63
2023/07/23 04:58:44;;;;;;;2.72;2.53;;;;;;;;;;5119743;28;20602;-63
2023/07/23 05:01:12;;;;;;;3.30;3.00;;;;;;;;;;5119558;28;20243;-63
2023/07/23 05:03:40;;;;;;;2.75;2.55;;;;;;;;;;5119545;28;20524;-63
2023/07/23 05:06:09;;;;;;;2.90;2.70;;;;;;;;;;5119953;28;20198;-63
2023/07/23 05:08:37;;;;;;;2.67;2.47;;;;;;;;;;5119168;28;20203;-63
2023/07/23 05:11:05;;;;;;;3.20;2.90;;;;;;;;;;5119616;28;20291;-63
2023/07/23 05:13:33;;;;;;;2.72;2.53;;;;;;;;;;5119687;28;20285;-63
2023/07/23 05:16:01;;;;;;;2.75;2.55;;;;;;;;;;5119264;28;20234;-63
2023/07/23 05:18:28;;;;;;;2.50;2.30;;;;;;;;;;5119507;28;20209;-63
2023/07/23 05:20:56;;;;;;;2.92;2.72;;;;;;;;;;5119310;28;20198;-63
2023/07/23 05:23:25;;;;;;;2.80;2.60;;;;;;;;;;5119347;28;20217;-63
2023/07/23 05:25:52;;;;;;;2.90;2.70;;;;;;;;;;5119364;28;20473;-63
2023/07/23 05:28:20;;;;;;;2.42;2.33;;;;;;;;;;5119290;28;20293;-63
2023/07/23 05:30:47;;;;;;;2.85;2.65;;;;;;;;;;5119203;28;20538;-63
2023/07/23 05:33:15;;;;;;;3.00;2.80;;;;;;;;;;5119074;28;20276;-63
2023/07/23 05:35:42;;;;;;;2.60;2.40;;;;;;;;;;5118856;28;20270;-63
2023/07/23 05:38:09;;;;;;;2.70;2.50;;;;;;;;;;5118746;28;20214;-63
2023/07/23 05:40:39;;;;;;;2.65;2.45;;;;;;;;;;5118904;28;20234;-63
2023/07/23 05:43:09;;;;;;;2.20;2.10;;;;;;;;;;5119174;28;20590;-63
2023/07/23 05:45:37;;;;;;;2.88;2.67;;;;;;;;;;5118946;28;20203;-63
2023/07/23 05:48:04;;;;;;;3.00;2.80;;;;;;;;;;5119146;28;20203;-63
2023/07/23 05:50:32;;;;;;;3.10;2.90;;;;;;;;;;5118388;28;20238;-63
2023/07/23 05:52:59;;;;;;;2.70;2.50;;;;;;;;;;5118571;28;20315;-63
2023/07/23 05:55:27;;;;;;;2.78;2.58;;;;;;;;;;5118724;28;20576;-63
2023/07/23 05:57:56;;;;;;;2.85;2.65;;;;;;;;;;5118252;28;20211;-63
2023/07/23 06:00:23;;;;;;;2.65;2.45;;;;;;;;;;5118513;28;20582;-63
2023/07/23 06:02:51;;;;;;;2.30;2.20;;;;;;;;;;5118790;28;20214;-63
2023/07/23 06:05:19;;;;;;;2.80;2.60;;;;;;;;;;5118529;28;20531;-62
2023/07/23 06:07:46;;;;;;;3.08;2.88;;;;;;;;;;5118477;28;20202;-62
2023/07/23 06:10:13;;;;;;;2.78;2.58;;;;;;;;;;5118315;28;20579;-63
2023/07/23 06:12:41;;;;;;;2.58;2.38;;;;;;;;;;5118537;28;20258;-63
2023/07/23 06:15:10;;;;;;;2.60;2.40;;;;;;;;;;5119052;28;20203;-63
2023/07/23 06:17:38;;;;;;;2.60;2.40;;;;;;;;;;5118241;28;20298;-63
2023/07/23 06:20:06;;;;;;;2.95;2.65;;;;;;;;;;5118232;28;20238;-63
2023/07/23 06:22:33;;;;;;;2.65;2.45;;;;;;;;;;5118142;28;20225;-63
2023/07/23 06:25:01;;;;;;;2.70;2.50;;;;;;;;;;5118422;28;20234;-63
2023/07/23 06:27:28;;;;;;;3.08;2.60;;;;;;;;;;5118570;28;20199;-63
2023/07/23 06:29:56;;;;;;;2.88;2.67;;;;;;;;;;5118204;28;20226;-66
2023/07/23 06:32:25;;;;;;;2.92;2.72;;;;;;;;;;5118013;28;20533;-63
2023/07/23 06:34:52;;;;;;;2.83;2.63;;;;;;;;;;5117288;28;20258;-63
2023/07/23 06:37:19;;;;;;;2.67;2.47;;;;;;;;;;5117422;28;20583;-63
2023/07/23 06:39:47;;;;;;;2.70;2.50;;;;;;;;;;5118203;28;20202;-63
2023/07/23 06:42:14;;;;;;;2.85;2.65;;;;;;;;;;5117802;28;20198;-63
2023/07/23 06:44:43;;;;;;;3.13;2.83;;;;;;;;;;5118430;28;20249;-63
2023/07/23 06:47:11;;;;;;;3.50;2.67;;;;;;;;;;5118197;28;20504;-64
2023/07/23 06:49:41;;;;;;;2.72;2.53;;;;;;;;;;5117961;28;20218;-63
2023/07/23 06:52:08;;;;;;;3.03;2.83;;;;;;;;;;5117636;28;20266;-63
2023/07/23 06:54:40;;;;;;;2.70;2.50;;;;;;;;;;5117680;28;20604;-63
2023/07/23 06:57:08;;;;;;;3.20;2.90;;;;;;;;;;5117336;28;20203;-63
2023/07/23 06:59:35;;;;;;;3.28;2.97;;;;;;;;;;5117498;28;20209;-63
2023/07/23 07:02:03;;;;;;;2.88;2.67;;;;;;;;;;5117055;28;20206;-63
2023/07/23 07:04:30;;;;;;;2.75;2.55;;;;;;;;;;5117917;28;20213;-63
2023/07/23 07:06:59;;;;;;;3.20;2.92;;;;;;;;;;5117198;28;20199;-63
2023/07/23 07:09:27;;;;;;;2.90;2.47;;;;;;;;;;5117202;28;20237;-63
2023/07/23 07:11:55;;;;;;;3.13;2.63;;;;;;;;;;5117409;28;20219;-63
2023/07/23 07:14:23;;;;;;;3.42;3.10;;;;;;;;;;5117791;28;20298;-63
2023/07/23 07:16:51;;;;;;;3.10;2.80;;;;;;;;;;5121559;28;20607;-63
2023/07/23 07:19:18;;;;;;;3.05;2.65;;;;;;;;;;5121571;28;20598;-63
2023/07/23 07:21:45;;;;;;;2.70;2.50;;;;;;;;;;5121327;28;20213;-63
2023/07/23 07:24:14;;;;;;;3.08;2.70;;;;;;;;;;5120929;28;20246;-63
2023/07/23 07:26:42;;;;;;;3.13;2.90;;;;;;;;;;5121069;28;20507;-63
2023/07/23 07:29:09;;;;;;;3.03;2.83;;;;;;;;;;5121469;28;20211;-63
2023/07/23 07:31:37;;;;;;;3.22;3.00;;;;;;;;;;5121038;28;20234;-63
2023/07/23 07:34:04;;;;;;;3.38;3.08;;;;;;;;;;5121063;28;20696;-62
2023/07/23 07:36:32;;;;;;;3.30;3.00;;;;;;;;;;5120695;28;20207;-62
2023/07/23 07:38:59;;;;;;;3.38;3.08;;;;;;;;;;5121237;28;20203;-63
2023/07/23 07:41:28;;;;;;;3.17;2.90;;;;;;;;;;5120703;28;20203;-63
2023/07/23 07:43:55;;;;;;;3.20;2.90;;;;;;;;;;5120790;28;20210;-62
2023/07/23 07:46:23;;;;;;;3.28;2.97;;;;;;;;;;5120852;28;20205;-62
2023/07/23 07:48:51;;;;;;;3.30;3.00;;;;;;;;;;5120904;28;20616;-62
2023/07/23 07:51:18;;;;;;;3.72;3.35;;;;;;;;;;5119930;28;20300;-63
2023/07/23 07:53:45;;;;;;;3.42;3.13;;;;;;;;;;5120689;28;20293;-63
2023/07/23 07:56:17;;;;;;;3.97;2.67;;;;;;;;;;5120352;28;20217;-62
2023/07/23 07:58:46;;;;;;;3.30;2.63;;;;;;;;;;5120017;28;20637;-63
2023/07/23 08:01:14;;;;;;;3.30;3.00;;;;;;;;;;5120078;28;20203;-63
2023/07/23 08:03:42;;;;;;;3.08;2.88;;;;;;;;;;5119702;28;20207;-63
2023/07/23 08:06:09;;;;;;;4.22;2.90;;;;;;;;;;5119900;28;20203;-63
2023/07/23 08:08:38;;;;;;;3.03;2.70;;;;;;;;;;5119114;28;20203;-63
2023/07/23 08:11:07;;;;;;;2.70;2.50;;;;;;;;;;5119762;28;20203;-63
2023/07/23 08:13:37;;;;;;;3.22;2.88;;;;;;;;;;5119616;28;20311;-63
2023/07/23 08:16:07;;;;;;;3.83;2.92;;;;;;;;;;5120011;28;20203;-63
2023/07/23 08:18:35;;;;;;;3.40;2.90;;;;;;;;;;5119691;28;20203;-63
2023/07/23 08:21:02;;;;;;;4.28;3.60;;;;;;;;;;5119981;28;20234;-63
2023/07/23 08:23:30;;;;;;;3.60;3.30;;;;;;;;;;5119697;28;20210;-63
2023/07/23 08:25:59;;;;;;;3.28;2.97;;;;;;;;;;5119500;28;20203;-63
2023/07/23 08:28:29;;;;;;;4.75;2.80;;;;;;;;;;5118861;28;20544;-63
2023/07/23 08:30:56;;;;;;;3.40;3.10;;;;;;;;;;5119971;28;20209;-63
2023/07/23 08:33:27;;;;;;;3.15;2.85;;;;;;;;;;5119683;28;20227;-63
2023/07/23 08:35:55;;;;;;;2.97;2.70;;;;;;;;;;5118776;28;20226;-63
2023/07/23 08:38:23;;;;;;;4.95;2.80;;;;;;;;;;5119377;28;20249;-63
2023/07/23 08:40:54;;;;;;;4.10;2.97;;;;;;;;;;5118972;28;20199;-63
2023/07/23 08:43:35;;;;;;;3.47;3.00;;;;;;;;;;5119435;28;20285;-63
2023/07/23 08:46:22;;;;;;;3.30;3.10;;;;;;;;;;5119279;28;20321;-62
2023/07/23 08:49:11;;;;;;;3.25;2.95;;;;;;;;;;5119212;28;20216;-62
2023/07/23 08:51:43;;;;;;;3.53;2.83;;;;;;;;;;5119044;28;20207;-62
2023/07/23 08:54:10;;;;;;;4.40;2.92;;;;;;;;;;5118588;28;20222;-63
2023/07/23 08:56:38;;;;;;;4.30;3.15;;;;;;;;;;5119170;28;20210;-62
2023/07/23 08:59:06;;;;;;;3.50;3.20;;;;;;;;;;5119370;28;20629;-62
2023/07/23 09:01:34;;;;;;;3.17;2.97;;;;;;;;;;5118844;28;20203;-62
2023/07/23 09:04:02;;;;;;;3.47;3.17;;;;;;;;;;5118973;28;20213;-62
2023/07/23 09:06:31;;;;;;;3.17;2.83;;;;;;;;;;5119165;28;20480;-62
2023/07/23 09:09:03;;;;;;;3.92;3.13;;;;;;;;;;5118667;28;20199;-62
2023/07/23 09:11:30;;;;;;;3.08;2.83;;;;;;;;;;5118047;28;20211;-62
2023/07/23 09:14:01;;;;;;;3.30;3.00;;;;;;;;;;5118346;28;20292;-62
2023/07/23 09:16:29;;;;;;;4.55;2.90;;;;;;;;;;5118572;28;20268;-62
2023/07/23 09:18:56;;;;;;;3.30;3.00;;;;;;;;;;5118608;28;20260;-63
2023/07/23 09:21:24;;;;;;;3.50;3.10;;;;;;;;;;5118861;28;20689;-63
2023/07/23 09:23:54;;;;;;;2.97;2.72;;;;;;;;;;5118134;28;20209;-63
2023/07/23 09:26:22;;;;;;;3.47;2.78;;;;;;;;;;5118059;28;20203;-63
2023/07/23 09:28:51;;;;;;;3.45;2.95;;;;;;;;;;5118055;28;20199;-63
2023/07/23 09:31:23;;;;;;;3.90;3.03;;;;;;;;;;5117762;28;20259;-63
2023/07/23 09:33:53;;;;;;;3.28;2.97;;;;;;;;;;5117858;28;20308;-63
2023/07/23 09:36:21;;;;;;;4.28;2.80;;;;;;;;;;5118274;28;20473;-62
2023/07/23 09:38:55;;;;;;;3.17;2.88;;;;;;;;;;5118052;28;20206;-63
2023/07/23 09:41:23;;;;;;;3.80;2.83;;;;;;;;;;5117639;28;20297;-62
2023/07/23 09:43:51;;;;;;;2.83;2.45;;;;;;;;;;5118115;28;20252;-62
2023/07/23 09:46:18;;;;;;;3.20;2.90;;;;;;;;;;5117670;28;20217;-63
2023/07/23 09:48:48;;;;;;;2.97;2.65;;;;;;;;;;5118054;28;20206;-62
2023/07/23 09:51:16;;;;;;;2.97;2.75;;;;;;;;;;5117752;28;20203;-63
2023/07/23 09:53:45;;;;;;;4.22;2.95;;;;;;;;;;5117607;28;20226;-63
2023/07/23 09:56:15;;;;;;;3.20;2.90;;;;;;;;;;5118009;28;20245;-63
2023/07/23 09:58:44;;;;;;;3.67;2.83;;;;;;;;;;5117743;28;20479;-63
2023/07/23 10:01:12;;;;;;;3.30;2.60;;;;;;;;;;5118278;28;20203;-62
2023/07/23 10:03:40;;;;;;;3.53;2.80;;;;;;;;;;5118012;28;20199;-62
2023/07/23 10:06:11;;;;;;;3.35;3.00;;;;;;;;;;5117225;28;20202;-63
2023/07/23 10:08:40;;;;;;;3.10;2.47;;;;;;;;;;5117445;28;20590;-62
2023/07/23 10:11:08;;;;;;;3.15;2.90;;;;;;;;;;5117968;28;20309;-62
2023/07/23 10:13:38;;;;;;;3.20;2.90;;;;;;;;;;5117835;28;20225;-62
2023/07/23 10:16:07;;;;;;;3.13;2.83;;;;;;;;;;5117488;28;20261;-62
2023/07/23 10:18:36;;;;;;;3.60;2.85;;;;;;;;;;5116199;28;20217;-62
2023/07/23 10:21:05;;;;;;;3.30;3.00;;;;;;;;;;5117211;28;20207;-62
2023/07/23 10:23:33;;;;;;;3.65;2.90;;;;;;;;;;5117067;28;20663;-62
2023/07/23 10:26:20;;;;;;;3.30;3.00;;;;;;;;;;5117474;28;20228;-62
2023/07/23 10:28:50;;;;;;;2.90;2.60;;;;;;;;;;5117098;28;20198;-63
2023/07/23 10:31:22;;;;;;;3.42;2.65;;;;;;;;;;5117128;28;20252;-62
2023/07/23 10:33:50;;;;;;;4.07;2.70;;;;;;;;;;5117518;28;20269;-62
2023/07/23 10:36:18;;;;;;;4.30;2.50;;;;;;;;;;5117166;28;20285;-62
2023/07/23 10:38:46;;;;;;;3.03;2.83;;;;;;;;;;5118098;28;20222;-62
2023/07/23 10:41:14;;;;;;;3.35;2.85;;;;;;;;;;5117416;28;20203;-62
2023/07/23 10:44:09;;;;;;;3.05;2.78;;;;;;;;;;5117599;28;20207;-63
2023/07/23 10:46:38;;;;;;;3.70;2.95;;;;;;;;;;5115823;28;20257;-62
2023/07/23 10:49:06;;;;;;;3.20;2.90;;;;;;;;;;5116678;28;20230;-62
2023/07/23 10:51:42;;;;;;;3.40;3.08;;;;;;;;;;5120333;28;20203;-62
2023/07/23 10:54:10;;;;;;;3.30;2.90;;;;;;;;;;5121532;28;20262;-62
2023/07/23 10:56:38;;;;;;;3.20;2.90;;;;;;;;;;5121210;28;20249;-62
2023/07/23 10:59:06;;;;;;;3.22;2.92;;;;;;;;;;5121500;28;20393;-62
2023/07/23 11:01:36;;;;;;;2.92;2.70;;;;;;;;;;5120321;28;20602;-62
2023/07/23 11:04:10;;;;;;;3.25;2.95;;;;;;;;;;5120552;28;20707;-62
2023/07/23 11:06:41;;;;;;;3.05;2.72;;;;;;;;;;5121209;28;20548;-62
2023/07/23 11:09:10;;;;;;;3.63;2.70;;;;;;;;;;5121052;28;20203;-62
2023/07/23 11:11:39;;;;;;;3.53;2.80;;;;;;;;;;5120615;28;20238;-63
2023/07/23 11:14:19;;;;;;;3.75;2.95;;;;;;;;;;5121013;28;20379;-63
2023/07/23 11:16:47;;;;;;;3.35;2.80;;;;;;;;;;5120859;28;20282;-63
2023/07/23 11:19:17;;;;;;;3.75;3.20;;;;;;;;;;5120339;28;20564;-63
2023/07/23 11:21:45;;;;;;;2.97;2.67;;;;;;;;;;5120557;28;20246;-63
2023/07/23 11:24:13;;;;;;;3.45;2.83;;;;;;;;;;5120598;28;20549;-63
2023/07/23 11:26:42;;;;;;;3.10;2.80;;;;;;;;;;5120474;28;20195;-63
2023/07/23 11:29:09;;;;;;;3.40;2.60;;;;;;;;;;5120648;28;20203;-63
2023/07/23 11:31:37;;;;;;;2.83;2.53;;;;;;;;;;5120972;28;20234;-68
2023/07/23 11:34:05;;;;;;;3.10;2.65;;;;;;;;;;5120270;28;20275;-63
2023/07/23 11:36:34;;;;;;;2.83;2.50;;;;;;;;;;5120056;28;20281;-63
2023/07/23 11:39:03;;;;;;;3.80;2.63;;;;;;;;;;5120629;28;20207;-63
2023/07/23 11:41:32;;;;;;;2.60;2.40;;;;;;;;;;5120740;28;20203;-63
2023/07/23 11:44:03;;;;;;;3.28;2.53;;;;;;;;;;5119968;28;20206;-63
2023/07/23 11:46:31;;;;;;;2.50;2.30;;;;;;;;;;5120454;28;20203;-63
2023/07/23 11:49:00;;;;;;;3.05;2.30;;;;;;;;;;5119833;28;20203;-63
2023/07/23 11:51:28;;;;;;;2.75;2.13;;;;;;;;;;5120406;28;20206;-63
2023/07/23 11:54:02;;;;;;;2.92;2.50;;;;;;;;;;5119105;28;20227;-63
2023/07/23 11:56:31;;;;;;;2.65;2.20;;;;;;;;;;5119865;28;20336;-63
2023/07/23 11:59:03;;;;;;;2.50;2.30;;;;;;;;;;5119920;28;20214;-63
2023/07/23 12:01:30;;;;;;;2.30;2.10;;;;;;;;;;5119593;28;20202;-63
2023/07/23 12:04:00;;;;;;;2.63;2.42;;;;;;;;;;5119687;28;20298;-63
2023/07/23 12:06:30;;;;;;;2.40;2.20;;;;;;;;;;5119002;28;20229;-63
2023/07/23 12:08:59;;;;;;;2.35;2.15;;;;;;;;;;5120027;28;20602;-63
2023/07/23 12:11:29;;;;;;;4.25;2.65;;;;;;;;;;5119165;28;20290;-62
2023/07/23 12:13:57;;;;;;;2.40;2.20;;;;;;;;;;5119427;28;20226;-64
2023/07/23 12:16:38;;;;;;;2.58;2.20;;;;;;;;;;5118990;28;20226;-63
2023/07/23 12:19:07;;;;;;;3.03;2.45;;;;;;;;;;5119416;28;20207;-63
2023/07/23 12:21:36;;;;;;;2.67;2.38;;;;;;;;;;5119998;28;20207;-63
2023/07/23 12:24:21;;;;;;;2.55;2.35;;;;;;;;;;5118355;28;20199;-63
2023/07/23 12:26:50;;;;;;;2.55;2.17;;;;;;;;;;5119065;28;20241;-63
2023/07/23 12:29:18;;;;;;;2.88;2.22;;;;;;;;;;5119706;28;20247;-63
2023/07/23 12:31:45;;;;;;;2.30;2.10;;;;;;;;;;5119009;28;20636;-63
2023/07/23 12:34:13;;;;;;;2.60;2.40;;;;;;;;;;5118878;28;20249;-63
2023/07/23 12:36:41;;;;;;;4.18;2.40;;;;;;;;;;5118514;28;20195;-63
2023/07/23 12:39:09;;;;;;;2.83;2.58;;;;;;;;;;5118831;28;20285;-63
2023/07/23 12:41:38;;;;;;;3.08;2.63;;;;;;;;;;5119011;28;20203;-64
2023/07/23 12:44:06;;;;;;;2.90;2.60;;;;;;;;;;5118679;28;20671;-63
2023/07/23 12:46:33;;;;;;;2.83;2.50;;;;;;;;;;5118625;28;20264;-63
2023/07/23 12:49:01;;;;;;;2.55;2.35;;;;;;;;;;5117867;28;20567;-63
2023/07/23 12:51:28;;;;;;;2.40;2.20;;;;;;;;;;5119020;28;20252;-63
2023/07/23 12:53:56;;;;;;;3.35;2.40;;;;;;;;;;5118514;28;20322;-63
2023/07/23 12:56:23;;;;;;;3.28;2.42;;;;;;;;;;5118801;28;20228;-63
2023/07/23 12:58:52;;;;;;;3.33;2.58;;;;;;;;;;5117953;28;20234;-63
2023/07/23 13:01:20;;;;;;;2.95;2.25;;;;;;;;;;5117990;28;20218;-63
2023/07/23 13:03:47;;;;;;;4.70;2.72;;;;;;;;;;5117789;28;20204;-63
2023/07/23 13:06:15;;;;;;;3.58;2.90;;;;;;;;;;5118127;28;20252;-63
2023/07/23 13:08:42;;;;;;;3.28;2.65;;;;;;;;;;5118454;28;20264;-63
2023/07/23 13:11:09;;;;;;;2.63;2.42;;;;;;;;;;5118148;28;20198;-63
2023/07/23 13:13:37;;;;;;;2.78;2.47;;;;;;;;;;5116241;28;20285;-63
2023/07/23 13:16:08;;;;;;;2.60;2.40;;;;;;;;;;5117690;28;20199;-63
2023/07/23 13:18:36;;;;;;;2.42;2.22;;;;;;;;;;5117666;28;20202;-63
2023/07/23 13:21:04;;;;;;;3.08;2.55;;;;;;;;;;5117587;28;20308;-63
2023/07/23 13:23:32;;;;;;;2.47;2.28;;;;;;;;;;5116973;28;20203;-63
2023/07/23 13:25:59;;;;;;;2.95;2.45;;;;;;;;;;5117646;28;20252;-63
2023/07/23 13:28:26;;;;;;;2.63;2.42;;;;;;;;;;5117929;28;20293;-63
2023/07/23 13:30:55;;;;;;;2.60;2.40;;;;;;;;;;5116937;28;20579;-63
2023/07/23 13:33:24;;;;;;;3.38;2.47;;;;;;;;;;5116839;28;20203;-63
2023/07/23 13:35:53;;;;;;;2.40;2.20;;;;;;;;;;5116586;28;20750;-63
2023/07/23 13:38:20;;;;;;;2.95;2.30;;;;;;;;;;5117769;28;20203;-63
2023/07/23 13:40:48;;;;;;;2.42;2.22;;;;;;;;;;5116968;28;20203;-63
2023/07/23 13:43:15;;;;;;;2.60;2.22;;;;;;;;;;5116879;28;20620;-63
2023/07/23 13:45:43;;;;;;;2.88;2.50;;;;;;;;;;5118002;28;20203;-63
2023/07/23 13:48:10;;;;;;;2.47;2.25;;;;;;;;;;5117360;28;20246;-63
2023/07/23 13:50:39;;;;;;;2.70;2.50;;;;;;;;;;5117469;28;20206;-63
2023/07/23 13:53:08;;;;;;;3.05;2.33;;;;;;;;;;5117236;28;20226;-63
2023/07/23 13:55:36;;;;;;;2.67;2.10;;;;;;;;;;5116356;28;20237;-63
2023/07/23 13:58:03;;;;;;;3.40;2.55;;;;;;;;;;5116896;28;20658;-63
2023/07/23 14:00:31;;;;;;;2.50;2.30;;;;;;;;;;5116973;28;20214;-63
2023/07/23 14:02:58;;;;;;;2.38;2.08;;;;;;;;;;5117150;28;20226;-63
2023/07/23 14:05:28;;;;;;;4.15;2.50;;;;;;;;;;5117297;28;20289;-63
2023/07/23 14:07:58;;;;;;;3.30;2.35;;;;;;;;;;5116546;28;20380;-62
2023/07/23 14:10:25;;;;;;;2.60;2.40;;;;;;;;;;5116446;28;20594;-63
2023/07/23 14:12:53;;;;;;;2.30;2.10;;;;;;;;;;5116500;28;20267;-63
2023/07/23 14:15:20;;;;;;;2.95;2.42;;;;;;;;;;5116337;28;20281;-64
2023/07/23 14:17:48;;;;;;;2.70;2.50;;;;;;;;;;5117633;28;20213;-64
2023/07/23 14:20:15;;;;;;;2.97;2.20;;;;;;;;;;5117669;28;20251;-63
2023/07/23 14:22:43;;;;;;;2.30;2.10;;;;;;;;;;5117025;28;20205;-63
2023/07/23 14:25:12;;;;;;;2.17;1.98;;;;;;;;;;5116220;28;20199;-63
2023/07/23 14:27:39;;;;;;;2.55;2.05;;;;;;;;;;5116643;28;20294;-63
2023/07/23 14:30:07;;;;;;;2.50;2.30;;;;;;;;;;5116211;28;20207;-63
2023/07/23 14:32:35;;;;;;;2.70;2.00;;;;;;;;;;5116454;28;20216;-63
2023/07/23 14:35:02;;;;;;;3.67;2.20;;;;;;;;;;5116476;28;20476;-63
2023/07/23 14:37:30;;;;;;;2.47;2.28;;;;;;;;;;5116065;28;20202;-63
2023/07/23 14:39:58;;;;;;;3.05;2.30;;;;;;;;;;5117098;28;20203;-62
2023/07/23 14:42:27;;;;;;;2.95;2.15;;;;;;;;;;5116648;28;20308;-63
2023/07/23 14:44:54;;;;;;;2.53;2.33;;;;;;;;;;5116747;28;20213;-63
2023/07/23 14:47:21;;;;;;;2.75;2.10;;;;;;;;;;5116995;28;20238;-63
2023/07/23 14:49:49;;;;;;;2.00;1.80;;;;;;;;;;5117054;28;20230;-63
2023/07/23 14:52:17;;;;;;;2.90;2.10;;;;;;;;;;5116092;28;20227;-63